Time;durP1;ratioP1;P1;durP2;ratioP2;P2;SDS_P1;SDS_P2;PMS_P1;PMS_P2;Temp;Humidity;BMP_temperature;BMP_pressure;BME280_temperature;BME280_humidity;BME280_pressure;Samples;Min_cycle;Max_cycle;Signal;HPM_P1;HPM_P2
2024/03/16 00:02:12;;;;;;;10.05;1.67;;;;;;;;;;4980706;28;20057;-67
2024/03/16 00:04:39;;;;;;;22.60;4.65;;;;;;;;;;5010921;28;21290;-68
2024/03/16 00:07:06;;;;;;;10.02;2.05;;;;;;;;;;5001865;28;20157;-66
2024/03/16 00:09:33;;;;;;;11.65;2.63;;;;;;;;;;4999436;28;20068;-67
2024/03/16 00:12:00;;;;;;;8.38;1.90;;;;;;;;;;5006725;28;21050;-66
2024/03/16 00:14:27;;;;;;;15.93;2.20;;;;;;;;;;4958819;28;20056;-67
2024/03/16 00:16:54;;;;;;;15.52;2.03;;;;;;;;;;5002709;28;20127;-67
2024/03/16 00:19:21;;;;;;;14.88;2.22;;;;;;;;;;5004481;28;20065;-68
2024/03/16 00:21:48;;;;;;;10.15;2.08;;;;;;;;;;4988381;28;20049;-68
2024/03/16 00:24:17;;;;;;;9.98;2.10;;;;;;;;;;4979598;28;20060;-67
2024/03/16 00:26:44;;;;;;;7.65;1.83;;;;;;;;;;4982537;28;20094;-68
2024/03/16 00:29:11;;;;;;;8.40;1.88;;;;;;;;;;4987994;28;20140;-67
2024/03/16 00:31:38;;;;;;;14.50;2.45;;;;;;;;;;4987183;28;20083;-67
2024/03/16 00:34:05;;;;;;;11.35;2.58;;;;;;;;;;4952171;28;20057;-66
2024/03/16 00:36:32;;;;;;;13.75;2.45;;;;;;;;;;4975577;28;20194;-67
2024/03/16 00:38:59;;;;;;;9.00;1.95;;;;;;;;;;4993935;28;20061;-68
2024/03/16 00:41:25;;;;;;;14.75;2.17;;;;;;;;;;4977869;28;20087;-67
2024/03/16 00:43:52;;;;;;;15.18;2.92;;;;;;;;;;4937720;28;20080;-67
2024/03/16 00:46:19;;;;;;;13.88;2.85;;;;;;;;;;4955660;28;20204;-67
2024/03/16 00:48:46;;;;;;;15.73;3.92;;;;;;;;;;4982983;28;20090;-68
2024/03/16 00:51:13;;;;;;;16.80;4.95;;;;;;;;;;4968898;28;20049;-69
2024/03/16 00:53:43;;;;;;;10.73;3.10;;;;;;;;;;4921057;28;20331;-67
2024/03/16 00:56:11;;;;;;;13.18;3.30;;;;;;;;;;4958023;28;20148;-69
2024/03/16 00:58:39;;;;;;;16.27;3.03;;;;;;;;;;4955507;28;20054;-69
2024/03/16 01:01:06;;;;;;;;;;;;;;;;;;4974280;28;20190;-69
2024/03/16 01:03:33;;;;;;;15.27;3.00;;;;;;;;;;4936480;28;20093;-68
2024/03/16 01:06:00;;;;;;;15.05;3.35;;;;;;;;;;4938412;28;20112;-68
2024/03/16 01:08:27;;;;;;;15.80;3.60;;;;;;;;;;4949308;28;20050;-68
2024/03/16 01:10:55;;;;;;;14.55;3.35;;;;;;;;;;4938209;28;20057;-67
2024/03/16 01:13:22;;;;;;;14.50;3.42;;;;;;;;;;4944476;28;20073;-67
2024/03/16 01:15:49;;;;;;;12.93;3.58;;;;;;;;;;4939941;28;20213;-67
2024/03/16 01:18:16;;;;;;;10.50;3.35;;;;;;;;;;4935154;28;20213;-69
2024/03/16 01:20:44;;;;;;;18.92;4.28;;;;;;;;;;4951553;28;20070;-68
2024/03/16 01:23:13;;;;;;;19.23;3.85;;;;;;;;;;4892225;28;20141;-68
2024/03/16 01:25:40;;;;;;;15.80;4.47;;;;;;;;;;4943525;28;20076;-67
2024/03/16 01:28:10;;;;;;;14.93;3.25;;;;;;;;;;4972772;28;20172;-67
2024/03/16 01:30:38;;;;;;;10.23;3.70;;;;;;;;;;4956386;28;20054;-68
2024/03/16 01:33:05;;;;;;;11.38;3.92;;;;;;;;;;4940282;28;20061;-67
2024/03/16 01:35:33;;;;;;;18.23;4.03;;;;;;;;;;4960693;28;20057;-68
2024/03/16 01:38:00;;;;;;;16.40;3.83;;;;;;;;;;4958432;28;20072;-69
2024/03/16 01:40:27;;;;;;;16.42;4.43;;;;;;;;;;4967563;28;20411;-67
2024/03/16 01:42:54;;;;;;;12.52;4.25;;;;;;;;;;4919779;28;20087;-69
2024/03/16 01:45:22;;;;;;;15.63;4.28;;;;;;;;;;4913063;28;20109;-68
2024/03/16 01:47:52;;;;;;;14.52;4.25;;;;;;;;;;4962840;28;20090;-68
2024/03/16 01:50:19;;;;;;;18.38;4.97;;;;;;;;;;4947060;28;20045;-67
2024/03/16 01:52:46;;;;;;;15.85;4.32;;;;;;;;;;4919712;28;20085;-70
2024/03/16 01:55:13;;;;;;;10.13;3.88;;;;;;;;;;4948124;28;20057;-70
2024/03/16 01:57:40;;;;;;;15.10;3.63;;;;;;;;;;4957081;28;20061;-69
2024/03/16 02:00:11;;;;;;;16.67;4.25;;;;;;;;;;4958544;28;20053;-68
2024/03/16 02:02:38;;;;;;;21.48;5.57;;;;;;;;;;4942954;28;20050;-69
2024/03/16 02:05:05;;;;;;;16.80;4.70;;;;;;;;;;4954707;28;20300;-69
2024/03/16 02:07:32;;;;;;;20.27;6.13;;;;;;;;;;4973198;28;20057;-68
2024/03/16 02:09:59;;;;;;;15.80;5.05;;;;;;;;;;4957845;28;20970;-69
2024/03/16 02:12:26;;;;;;;16.65;4.47;;;;;;;;;;4968790;28;20053;-67
2024/03/16 02:14:53;;;;;;;24.75;4.40;;;;;;;;;;4946611;28;20050;-68
2024/03/16 02:17:20;;;;;;;14.90;4.25;;;;;;;;;;4957518;28;20103;-69
2024/03/16 02:19:47;;;;;;;15.48;4.07;;;;;;;;;;4973063;28;20061;-69
2024/03/16 02:22:14;;;;;;;19.55;4.13;;;;;;;;;;4952652;28;20120;-68
2024/03/16 02:24:41;;;;;;;23.40;4.90;;;;;;;;;;4945435;28;20129;-68
2024/03/16 02:27:08;;;;;;;20.27;4.80;;;;;;;;;;4956701;28;20057;-68
2024/03/16 02:29:36;;;;;;;15.90;4.72;;;;;;;;;;4973896;28;20877;-68
2024/03/16 02:32:05;;;;;;;15.93;3.95;;;;;;;;;;4974138;28;20093;-66
2024/03/16 02:34:32;;;;;;;15.80;4.13;;;;;;;;;;4946478;28;20160;-67
2024/03/16 02:36:59;;;;;;;14.73;3.58;;;;;;;;;;4955265;28;20046;-68
2024/03/16 02:39:26;;;;;;;18.25;3.20;;;;;;;;;;4954990;28;20061;-68
2024/03/16 02:41:55;;;;;;;8.30;2.40;;;;;;;;;;4971091;28;20061;-68
2024/03/16 02:44:22;;;;;;;9.52;2.20;;;;;;;;;;4937803;28;20062;-67
2024/03/16 02:46:49;;;;;;;6.93;2.50;;;;;;;;;;4953955;28;20258;-67
2024/03/16 02:49:16;;;;;;;11.70;2.20;;;;;;;;;;4954969;28;20054;-65
2024/03/16 02:51:43;;;;;;;8.98;2.42;;;;;;;;;;4971338;28;20053;-68
2024/03/16 02:54:10;;;;;;;9.85;2.40;;;;;;;;;;4950435;28;20050;-70
2024/03/16 02:56:37;;;;;;;11.45;2.20;;;;;;;;;;4959924;28;20062;-67
2024/03/16 02:59:04;;;;;;;9.98;1.98;;;;;;;;;;4956925;28;20053;-67
2024/03/16 03:01:31;;;;;;;11.20;1.85;;;;;;;;;;4974937;28;20153;-67
2024/03/16 03:03:58;;;;;;;16.75;2.42;;;;;;;;;;4921881;28;20128;-67
2024/03/16 03:06:25;;;;;;;9.30;2.22;;;;;;;;;;4981577;28;20081;-67
2024/03/16 03:08:52;;;;;;;15.18;4.85;;;;;;;;;;5001372;28;20057;-68
2024/03/16 03:11:19;;;;;;;15.10;4.50;;;;;;;;;;4980977;28;20243;-67
2024/03/16 03:13:47;;;;;;;6.70;1.73;;;;;;;;;;4961126;28;20080;-67
2024/03/16 03:16:18;;;;;;;7.93;2.08;;;;;;;;;;4947604;28;20053;-68
2024/03/16 03:18:46;;;;;;;6.88;2.15;;;;;;;;;;4948858;28;20904;-67
2024/03/16 03:21:13;;;;;;;8.38;1.88;;;;;;;;;;4959574;28;20058;-69
2024/03/16 03:23:46;;;;;;;10.82;3.47;;;;;;;;;;4936270;28;20056;-68
2024/03/16 03:26:13;;;;;;;15.40;2.50;;;;;;;;;;4964718;28;21256;-67
2024/03/16 03:28:40;;;;;;;10.60;1.98;;;;;;;;;;4966442;28;20057;-68
2024/03/16 03:31:07;;;;;;;7.63;1.80;;;;;;;;;;4965064;28;20176;-67
2024/03/16 03:33:34;;;;;;;5.97;2.03;;;;;;;;;;4955540;28;20306;-68
2024/03/16 03:36:02;;;;;;;7.88;1.40;;;;;;;;;;4947952;28;20112;-67
2024/03/16 03:38:29;;;;;;;8.20;1.90;;;;;;;;;;4956614;28;20069;-67
2024/03/16 03:40:56;;;;;;;7.03;1.83;;;;;;;;;;4961972;28;20065;-68
2024/03/16 03:43:26;;;;;;;6.13;2.50;;;;;;;;;;4967395;28;20051;-68
2024/03/16 03:45:53;;;;;;;3.90;1.38;;;;;;;;;;4958507;28;20144;-68
2024/03/16 03:48:35;;;;;;;4.40;1.73;;;;;;;;;;4963897;28;20046;-67
2024/03/16 03:51:04;;;;;;;4.93;1.88;;;;;;;;;;4951211;28;20137;-67
2024/03/16 03:53:31;;;;;;;4.40;1.85;;;;;;;;;;4949573;28;20188;-67
2024/03/16 03:55:59;;;;;;;7.45;2.10;;;;;;;;;;4962025;28;20052;-67
2024/03/16 03:58:29;;;;;;;6.43;1.85;;;;;;;;;;4968608;28;20053;-67
2024/03/16 04:00:55;;;;;;;6.38;2.05;;;;;;;;;;4974701;28;20085;-67
2024/03/16 04:03:22;;;;;;;6.63;2.22;;;;;;;;;;4983076;28;20054;-68
2024/03/16 04:05:52;;;;;;;5.47;2.33;;;;;;;;;;4904231;28;20557;-68
2024/03/16 04:08:20;;;;;;;2.47;0.80;;;;;;;;;;4958933;28;20944;-66
2024/03/16 04:10:47;;;;;;;4.00;1.50;;;;;;;;;;4976505;28;21474;-69
2024/03/16 04:13:16;;;;;;;2.80;1.40;;;;;;;;;;4959928;28;20049;-67
2024/03/16 04:15:43;;;;;;;2.22;0.95;;;;;;;;;;4941375;28;20062;-67
2024/03/16 04:18:13;;;;;;;4.53;1.30;;;;;;;;;;4960174;28;20065;-66
2024/03/16 04:20:40;;;;;;;3.20;1.40;;;;;;;;;;4959177;28;20165;-66
2024/03/16 04:23:09;;;;;;;4.68;1.20;;;;;;;;;;4965656;28;20056;-66
2024/03/16 04:25:35;;;;;;;2.22;1.23;;;;;;;;;;4952237;28;20061;-66
2024/03/16 04:28:02;;;;;;;3.72;1.50;;;;;;;;;;4963176;28;20080;-66
2024/03/16 04:30:29;;;;;;;4.65;1.42;;;;;;;;;;4969657;28;20058;-66
2024/03/16 04:32:56;;;;;;;3.65;1.15;;;;;;;;;;4965515;28;20061;-66
2024/03/16 04:35:23;;;;;;;4.72;1.50;;;;;;;;;;4938130;28;20512;-65
2024/03/16 04:37:51;;;;;;;2.83;1.15;;;;;;;;;;4954147;28;20050;-67
2024/03/16 04:40:18;;;;;;;2.25;1.27;;;;;;;;;;4972948;28;20058;-67
2024/03/16 04:42:45;;;;;;;6.10;1.35;;;;;;;;;;4974539;28;20077;-66
2024/03/16 04:45:12;;;;;;;2.50;1.30;;;;;;;;;;4953458;28;20054;-66
2024/03/16 04:47:42;;;;;;;2.88;0.90;;;;;;;;;;4973545;28;20366;-66
2024/03/16 04:50:11;;;;;;;2.83;0.90;;;;;;;;;;4954284;28;20056;-66
2024/03/16 04:52:38;;;;;;;4.25;1.10;;;;;;;;;;4959156;28;20060;-66
2024/03/16 04:55:07;;;;;;;3.85;1.08;;;;;;;;;;4913970;28;20146;-67
2024/03/16 04:57:34;;;;;;;3.65;1.00;;;;;;;;;;4951200;28;20081;-68
2024/03/16 05:00:04;;;;;;;8.10;1.30;;;;;;;;;;4949112;28;20057;-67
2024/03/16 05:02:33;;;;;;;3.42;1.23;;;;;;;;;;4982252;28;20225;-67
2024/03/16 05:05:00;;;;;;;5.10;0.90;;;;;;;;;;4976078;28;21074;-66
2024/03/16 05:07:27;;;;;;;1.73;0.90;;;;;;;;;;4967823;28;20065;-66
2024/03/16 05:09:54;;;;;;;1.95;0.90;;;;;;;;;;4963983;28;20128;-66
2024/03/16 05:12:22;;;;;;;3.97;1.15;;;;;;;;;;4983781;28;20058;-67
2024/03/16 05:14:49;;;;;;;1.73;1.20;;;;;;;;;;4963829;28;20057;-67
2024/03/16 05:17:16;;;;;;;3.40;1.10;;;;;;;;;;4984136;28;20141;-67
2024/03/16 05:19:46;;;;;;;2.77;1.30;;;;;;;;;;4966164;28;20057;-68
2024/03/16 05:22:13;;;;;;;1.92;0.93;;;;;;;;;;4981522;28;20061;-67
2024/03/16 05:24:40;;;;;;;5.90;1.20;;;;;;;;;;4954955;28;20151;-67
2024/03/16 05:27:08;;;;;;;11.93;1.38;;;;;;;;;;5002899;28;20125;-67
2024/03/16 05:29:35;;;;;;;4.63;1.20;;;;;;;;;;4987130;28;20053;-67
2024/03/16 05:32:03;;;;;;;2.65;1.15;;;;;;;;;;4983546;28;20077;-66
2024/03/16 05:34:30;;;;;;;5.05;1.20;;;;;;;;;;4933955;28;20247;-67
2024/03/16 05:37:01;;;;;;;2.38;0.80;;;;;;;;;;4971918;28;20057;-67
2024/03/16 05:39:28;;;;;;;8.85;1.20;;;;;;;;;;5000685;28;20164;-67
2024/03/16 05:41:55;;;;;;;2.72;1.25;;;;;;;;;;4980970;28;20064;-66
2024/03/16 05:44:22;;;;;;;5.50;1.38;;;;;;;;;;4970488;28;20243;-66
2024/03/16 05:46:49;;;;;;;6.80;1.10;;;;;;;;;;4976792;28;20065;-68
2024/03/16 05:49:16;;;;;;;1.25;0.70;;;;;;;;;;4986090;28;21170;-66
2024/03/16 05:51:43;;;;;;;4.40;0.95;;;;;;;;;;4974801;28;20049;-66
2024/03/16 05:54:10;;;;;;;2.60;1.02;;;;;;;;;;4971354;28;20053;-66
2024/03/16 05:56:37;;;;;;;2.40;0.80;;;;;;;;;;4985933;28;20061;-66
2024/03/16 05:59:08;;;;;;;2.97;0.85;;;;;;;;;;5003348;28;20144;-67
2024/03/16 06:01:36;;;;;;;1.92;0.80;;;;;;;;;;4987130;28;20061;-67
2024/03/16 06:04:03;;;;;;;5.30;1.02;;;;;;;;;;4955184;28;20065;-66
2024/03/16 06:06:32;;;;;;;3.13;0.65;;;;;;;;;;4954651;28;20061;-67
2024/03/16 06:08:59;;;;;;;4.43;0.90;;;;;;;;;;4968192;28;20054;-67
2024/03/16 06:11:27;;;;;;;3.92;0.90;;;;;;;;;;4982795;28;20062;-67
2024/03/16 06:13:55;;;;;;;8.05;1.23;;;;;;;;;;4951292;28;20192;-67
2024/03/16 06:16:28;;;;;;;4.45;0.80;;;;;;;;;;4965489;28;20053;-67
2024/03/16 06:18:58;;;;;;;1.17;0.60;;;;;;;;;;4970658;28;20057;-66
2024/03/16 06:21:27;;;;;;;2.78;0.60;;;;;;;;;;4983598;28;20069;-66
2024/03/16 06:23:56;;;;;;;5.47;0.70;;;;;;;;;;4936040;28;20054;-66
2024/03/16 06:26:23;;;;;;;3.67;1.40;;;;;;;;;;4950770;28;20131;-66
2024/03/16 06:29:04;;;;;;;3.22;0.80;;;;;;;;;;4997476;28;20093;-66
2024/03/16 06:31:32;;;;;;;3.22;0.82;;;;;;;;;;4971412;28;20049;-68
2024/03/16 06:33:59;;;;;;;5.70;0.80;;;;;;;;;;4963223;28;20061;-66
2024/03/16 06:36:28;;;;;;;3.80;0.80;;;;;;;;;;4996780;28;20167;-66
2024/03/16 06:38:55;;;;;;;7.22;1.15;;;;;;;;;;4981371;28;20054;-66
2024/03/16 06:41:26;;;;;;;3.95;0.50;;;;;;;;;;4982131;28;20172;-67
2024/03/16 06:43:53;;;;;;;2.85;0.90;;;;;;;;;;4954692;28;20065;-67
2024/03/16 06:46:21;;;;;;;4.65;0.73;;;;;;;;;;4983727;28;20185;-67
2024/03/16 06:48:48;;;;;;;2.13;0.75;;;;;;;;;;4979651;28;20167;-67
2024/03/16 06:51:18;;;;;;;0.88;0.35;;;;;;;;;;4966782;28;20066;-64
2024/03/16 06:53:50;;;;;;;4.28;0.90;;;;;;;;;;4983359;28;20048;-65
2024/03/16 06:56:23;;;;;;;7.38;1.02;;;;;;;;;;4910420;28;20058;-66
2024/03/16 06:58:52;;;;;;;4.85;1.08;;;;;;;;;;4958728;28;20064;-65
2024/03/16 07:01:20;;;;;;;4.25;1.00;;;;;;;;;;4973638;28;20089;-67
2024/03/16 07:03:50;;;;;;;2.38;0.63;;;;;;;;;;4952384;28;20046;-67
2024/03/16 07:06:20;;;;;;;2.42;0.80;;;;;;;;;;4952771;28;20068;-67
2024/03/16 07:08:50;;;;;;;4.82;0.77;;;;;;;;;;4956315;28;21053;-68
2024/03/16 07:11:18;;;;;;;3.75;0.95;;;;;;;;;;4969446;28;20061;-68
2024/03/16 07:13:48;;;;;;;3.05;0.70;;;;;;;;;;4968110;28;20208;-67
2024/03/16 07:16:15;;;;;;;5.80;0.88;;;;;;;;;;4947745;28;20165;-68
2024/03/16 07:18:43;;;;;;;4.20;0.57;;;;;;;;;;4956394;28;20057;-67
2024/03/16 07:21:10;;;;;;;10.45;1.85;;;;;;;;;;4973052;28;20057;-69
2024/03/16 07:23:39;;;;;;;5.95;0.90;;;;;;;;;;4957618;28;20057;-68
2024/03/16 07:26:06;;;;;;;2.20;0.70;;;;;;;;;;4923556;28;20931;-65
2024/03/16 07:28:34;;;;;;;3.93;1.03;;;;;;;;;;4957194;28;20069;-65
2024/03/16 07:31:00;;;;;;;3.15;0.80;;;;;;;;;;4955721;28;20085;-65
2024/03/16 07:33:29;;;;;;;3.42;0.77;;;;;;;;;;4940914;28;20130;-67
2024/03/16 07:35:58;;;;;;;3.35;0.77;;;;;;;;;;4939235;28;20168;-66
2024/03/16 07:38:25;;;;;;;4.65;0.50;;;;;;;;;;4959832;28;20085;-65
2024/03/16 07:40:52;;;;;;;5.80;0.82;;;;;;;;;;4960707;28;20104;-65
2024/03/16 07:43:19;;;;;;;5.35;0.98;;;;;;;;;;4958724;28;20057;-65
2024/03/16 07:45:50;;;;;;;4.63;0.80;;;;;;;;;;4924479;28;20061;-65
2024/03/16 07:48:17;;;;;;;4.15;0.60;;;;;;;;;;4960416;28;20053;-65
2024/03/16 07:50:43;;;;;;;4.07;0.70;;;;;;;;;;4977663;28;20160;-66
2024/03/16 07:53:11;;;;;;;4.03;0.63;;;;;;;;;;4959840;28;20058;-65
2024/03/16 07:55:41;;;;;;;3.53;0.80;;;;;;;;;;4916272;28;20065;-66
2024/03/16 07:58:14;;;;;;;3.72;0.63;;;;;;;;;;4939222;28;20061;-65
2024/03/16 08:00:43;;;;;;;3.42;0.90;;;;;;;;;;4946045;28;20062;-65
2024/03/16 08:03:13;;;;;;;6.00;0.90;;;;;;;;;;4984446;28;20137;-65
2024/03/16 08:05:43;;;;;;;5.53;0.68;;;;;;;;;;4937535;28;20128;-66
2024/03/16 08:08:10;;;;;;;6.95;1.55;;;;;;;;;;4986395;28;20859;-65
2024/03/16 08:10:37;;;;;;;4.03;0.77;;;;;;;;;;4968466;28;20058;-66
2024/03/16 08:13:04;;;;;;;6.03;1.00;;;;;;;;;;4983303;28;20174;-65
2024/03/16 08:15:31;;;;;;;4.15;0.85;;;;;;;;;;4937582;28;20069;-66
2024/03/16 08:18:00;;;;;;;4.65;0.95;;;;;;;;;;4974907;28;20054;-66
2024/03/16 08:20:27;;;;;;;;;;;;;;;;;;4981920;28;20069;-67
2024/03/16 08:22:56;;;;;;;5.05;1.02;;;;;;;;;;4979651;28;19968;-67
2024/03/16 08:25:23;;;;;;;1.75;0.30;;;;;;;;;;4918727;28;20073;-65
2024/03/16 08:27:51;;;;;;;3.30;0.55;;;;;;;;;;4972451;28;20075;-66
2024/03/16 08:30:18;;;;;;;3.97;0.83;;;;;;;;;;4985474;28;21048;-65
2024/03/16 08:32:46;;;;;;;4.93;1.00;;;;;;;;;;4999885;28;20060;-66
2024/03/16 08:35:14;;;;;;;5.07;1.00;;;;;;;;;;4963486;28;20151;-66
2024/03/16 08:37:46;;;;;;;4.78;0.80;;;;;;;;;;4981772;28;20057;-66
2024/03/16 08:40:18;;;;;;;4.75;0.68;;;;;;;;;;4965668;28;20050;-66
2024/03/16 08:42:48;;;;;;;6.20;1.05;;;;;;;;;;4984346;28;20980;-66
2024/03/16 08:45:17;;;;;;;4.22;0.80;;;;;;;;;;4970991;28;20072;-66
2024/03/16 08:47:46;;;;;;;1.77;0.80;;;;;;;;;;4965501;28;20061;-66
2024/03/16 08:50:13;;;;;;;4.60;0.68;;;;;;;;;;4983205;28;20382;-66
2024/03/16 08:53:00;;;;;;;1.97;0.80;;;;;;;;;;4984610;28;20054;-66
2024/03/16 08:55:27;;;;;;;5.25;1.02;;;;;;;;;;4955158;28;20061;-66
2024/03/16 08:57:54;;;;;;;3.38;0.50;;;;;;;;;;4977733;28;20928;-65
2024/03/16 09:00:27;;;;;;;6.00;0.75;;;;;;;;;;5001654;28;20053;-65
2024/03/16 09:02:57;;;;;;;5.03;0.77;;;;;;;;;;4991994;28;20059;-65
2024/03/16 09:05:26;;;;;;;5.38;0.88;;;;;;;;;;4977763;28;20099;-66
2024/03/16 09:07:55;;;;;;;2.53;0.38;;;;;;;;;;4968550;28;20055;-65
2024/03/16 09:10:24;;;;;;;12.57;3.60;;;;;;;;;;4986643;28;21021;-65
2024/03/16 09:12:51;;;;;;;8.43;1.10;;;;;;;;;;4986163;28;20211;-64
2024/03/16 09:15:21;;;;;;;3.25;0.63;;;;;;;;;;4946487;28;21223;-66
2024/03/16 09:17:48;;;;;;;2.40;0.85;;;;;;;;;;4976124;28;20067;-67
2024/03/16 09:20:15;;;;;;;5.85;1.13;;;;;;;;;;4976897;28;20045;-66
2024/03/16 09:22:43;;;;;;;3.97;0.85;;;;;;;;;;4977242;28;20076;-65
2024/03/16 09:25:15;;;;;;;3.83;0.80;;;;;;;;;;4883152;28;20122;-65
2024/03/16 09:27:51;;;;;;;4.05;1.02;;;;;;;;;;4975723;28;20060;-66
2024/03/16 09:30:22;;;;;;;6.22;1.00;;;;;;;;;;5006117;28;20060;-65
2024/03/16 09:32:49;;;;;;;5.30;0.90;;;;;;;;;;5003280;28;20091;-65
2024/03/16 09:35:19;;;;;;;1.75;0.50;;;;;;;;;;4931280;28;20198;-64
2024/03/16 09:37:48;;;;;;;7.30;0.75;;;;;;;;;;5015230;28;20151;-65
2024/03/16 09:40:17;;;;;;;8.63;0.88;;;;;;;;;;5002650;28;20055;-64
2024/03/16 09:42:46;;;;;;;1.85;0.50;;;;;;;;;;5003138;28;20483;-64
2024/03/16 09:45:17;;;;;;;4.55;1.20;;;;;;;;;;4957256;28;20091;-65
2024/03/16 09:47:46;;;;;;;6.40;0.77;;;;;;;;;;4989700;28;20068;-66
2024/03/16 09:50:17;;;;;;;12.90;3.78;;;;;;;;;;4973203;28;20055;-65
2024/03/16 09:52:44;;;;;;;6.80;1.33;;;;;;;;;;4976578;28;20188;-65
2024/03/16 09:55:14;;;;;;;6.00;1.00;;;;;;;;;;4946987;28;20158;-65
2024/03/16 09:57:45;;;;;;;4.38;0.75;;;;;;;;;;4965627;28;20082;-66
2024/03/16 10:00:22;;;;;;;5.65;1.48;;;;;;;;;;4963576;28;20059;-64
2024/03/16 10:02:54;;;;;;;8.30;0.85;;;;;;;;;;4973153;28;20097;-64
2024/03/16 10:05:22;;;;;;;3.25;1.00;;;;;;;;;;4918687;28;20321;-65
2024/03/16 10:07:52;;;;;;;0.90;0.40;;;;;;;;;;4958661;28;20053;-65
2024/03/16 10:10:21;;;;;;;3.60;0.80;;;;;;;;;;4977050;28;20063;-66
2024/03/16 10:13:00;;;;;;;4.05;1.00;;;;;;;;;;4992757;28;20068;-67
2024/03/16 10:15:28;;;;;;;5.10;0.70;;;;;;;;;;4947724;28;20100;-67
2024/03/16 10:17:55;;;;;;;4.15;0.70;;;;;;;;;;5009324;28;20069;-67
2024/03/16 10:20:24;;;;;;;4.45;0.75;;;;;;;;;;4993882;28;20973;-66
2024/03/16 10:22:51;;;;;;;7.18;2.42;;;;;;;;;;4979324;28;20048;-68
2024/03/16 10:25:18;;;;;;;6.25;1.70;;;;;;;;;;4992632;28;20057;-69
2024/03/16 10:27:45;;;;;;;8.65;2.53;;;;;;;;;;4967605;28;20082;-67
2024/03/16 10:30:15;;;;;;;2.90;1.05;;;;;;;;;;4994264;28;20276;-65
2024/03/16 10:32:43;;;;;;;3.47;0.90;;;;;;;;;;4978884;28;20079;-66
2024/03/16 10:35:14;;;;;;;4.50;0.93;;;;;;;;;;4971611;28;20119;-65
2024/03/16 10:37:44;;;;;;;3.88;0.85;;;;;;;;;;4968049;28;20056;-66
2024/03/16 10:40:17;;;;;;;3.55;0.73;;;;;;;;;;4992113;28;20045;-66
2024/03/16 10:42:47;;;;;;;22.13;6.70;;;;;;;;;;4998754;28;20555;-66
2024/03/16 10:45:16;;;;;;;27.02;10.07;;;;;;;;;;4997872;28;20368;-65
2024/03/16 10:47:50;;;;;;;7.47;1.35;;;;;;;;;;4990246;28;20064;-65
2024/03/16 10:50:19;;;;;;;32.33;9.52;;;;;;;;;;4979367;28;20061;-65
2024/03/16 10:52:48;;;;;;;7.28;2.45;;;;;;;;;;4984671;28;20057;-66
2024/03/16 10:55:15;;;;;;;5.90;1.25;;;;;;;;;;4972995;28;20068;-66
2024/03/16 10:57:46;;;;;;;6.43;0.80;;;;;;;;;;4992800;28;20057;-64
2024/03/16 11:00:36;;;;;;;5.53;0.95;;;;;;;;;;4977683;28;20063;-65
2024/03/16 11:03:07;;;;;;;3.20;0.90;;;;;;;;;;4980421;28;20468;-65
2024/03/16 11:05:35;;;;;;;2.75;0.82;;;;;;;;;;4982367;28;20068;-65
2024/03/16 11:08:02;;;;;;;3.78;0.90;;;;;;;;;;4970415;28;20447;-67
2024/03/16 11:10:42;;;;;;;6.00;0.90;;;;;;;;;;5001470;28;20061;-65
2024/03/16 11:13:15;;;;;;;5.80;1.05;;;;;;;;;;4981218;28;20079;-64
2024/03/16 11:15:43;;;;;;;4.18;0.75;;;;;;;;;;4977804;28;20224;-65
2024/03/16 11:18:43;;;;;;;7.95;0.93;;;;;;;;;;4976933;28;20068;-65
2024/03/16 11:21:16;;;;;;;7.63;1.10;;;;;;;;;;4968056;28;20049;-66
2024/03/16 11:23:48;;;;;;;5.55;0.98;;;;;;;;;;4983622;28;20076;-65
2024/03/16 11:26:36;;;;;;;12.98;1.15;;;;;;;;;;4998794;28;20069;-66
2024/03/16 11:29:14;;;;;;;7.88;0.90;;;;;;;;;;4994105;28;20056;-65
2024/03/16 11:31:46;;;;;;;4.00;1.10;;;;;;;;;;4985997;28;20048;-67
2024/03/16 11:34:13;;;;;;;2.67;1.00;;;;;;;;;;4994502;28;20174;-65
2024/03/16 11:36:44;;;;;;;6.88;1.20;;;;;;;;;;4990269;28;20076;-67
2024/03/16 11:39:12;;;;;;;4.90;0.82;;;;;;;;;;4990235;28;20063;-66
2024/03/16 11:41:43;;;;;;;6.22;0.75;;;;;;;;;;4985071;28;20060;-65
2024/03/16 11:44:12;;;;;;;17.02;4.10;;;;;;;;;;4985158;28;21267;-65
2024/03/16 11:46:40;;;;;;;9.98;2.53;;;;;;;;;;4972430;28;20230;-65
2024/03/16 11:49:09;;;;;;;7.82;1.40;;;;;;;;;;5005930;28;20064;-65
2024/03/16 11:51:37;;;;;;;3.13;0.75;;;;;;;;;;5002200;28;20175;-66
2024/03/16 11:54:03;;;;;;;4.85;0.77;;;;;;;;;;4980057;28;20273;-65
2024/03/16 11:56:30;;;;;;;6.55;0.90;;;;;;;;;;4980109;28;21027;-66
2024/03/16 11:59:03;;;;;;;4.40;0.98;;;;;;;;;;4977403;28;20049;-65
2024/03/16 12:01:30;;;;;;;2.67;0.95;;;;;;;;;;4967150;28;20114;-66
2024/03/16 12:03:57;;;;;;;6.05;1.15;;;;;;;;;;4977439;28;20053;-65
2024/03/16 12:06:24;;;;;;;8.30;1.17;;;;;;;;;;4971965;28;20066;-66
2024/03/16 12:08:50;;;;;;;27.23;9.63;;;;;;;;;;4985912;28;20053;-66
2024/03/16 12:11:18;;;;;;;7.47;1.67;;;;;;;;;;4989523;28;20053;-66
2024/03/16 12:13:46;;;;;;;8.77;3.33;;;;;;;;;;4987924;28;20165;-65
2024/03/16 12:16:12;;;;;;;5.88;0.90;;;;;;;;;;4980471;28;20137;-65
2024/03/16 12:18:39;;;;;;;7.25;0.90;;;;;;;;;;5004978;28;20048;-63
2024/03/16 12:21:06;;;;;;;4.38;0.90;;;;;;;;;;5002958;28;20068;-64
2024/03/16 12:23:32;;;;;;;5.50;1.00;;;;;;;;;;4990048;28;20060;-65
2024/03/16 12:26:00;;;;;;;1.05;0.60;;;;;;;;;;4974393;28;20345;-64
2024/03/16 12:28:27;;;;;;;7.60;1.02;;;;;;;;;;5003027;28;20092;-64
2024/03/16 12:30:53;;;;;;;9.82;0.98;;;;;;;;;;5003513;28;20068;-64
2024/03/16 12:33:20;;;;;;;5.95;1.33;;;;;;;;;;4984761;28;20137;-64
2024/03/16 12:35:47;;;;;;;3.13;0.60;;;;;;;;;;4970016;28;20065;-65
2024/03/16 12:38:13;;;;;;;3.40;1.38;;;;;;;;;;4986970;28;20152;-64
2024/03/16 12:40:40;;;;;;;8.95;1.00;;;;;;;;;;5005578;28;20053;-65
2024/03/16 12:43:07;;;;;;;6.72;1.00;;;;;;;;;;5003256;28;20049;-64
2024/03/16 12:45:37;;;;;;;7.95;2.83;;;;;;;;;;4956545;28;20084;-63
2024/03/16 12:48:03;;;;;;;9.98;3.40;;;;;;;;;;4986194;28;20053;-63
2024/03/16 12:50:33;;;;;;;7.32;1.05;;;;;;;;;;4986707;28;20118;-64
2024/03/16 12:53:18;;;;;;;5.00;1.23;;;;;;;;;;5000307;28;20061;-64
2024/03/16 12:55:54;;;;;;;2.67;0.85;;;;;;;;;;4939259;28;20060;-64
2024/03/16 12:58:26;;;;;;;6.65;1.38;;;;;;;;;;5003173;28;20050;-64
2024/03/16 13:00:53;;;;;;;2.63;1.02;;;;;;;;;;4987293;28;20119;-64
2024/03/16 13:03:29;;;;;;;11.45;4.43;;;;;;;;;;5005141;28;20057;-66
2024/03/16 13:05:58;;;;;;;13.48;3.75;;;;;;;;;;4924560;28;20080;-65
2024/03/16 13:08:27;;;;;;;3.13;1.08;;;;;;;;;;4989208;28;20278;-65
2024/03/16 13:10:54;;;;;;;4.93;1.20;;;;;;;;;;5006852;28;20049;-65
2024/03/16 13:13:20;;;;;;;6.30;1.08;;;;;;;;;;4988272;28;20090;-64
2024/03/16 13:15:47;;;;;;;4.03;1.00;;;;;;;;;;4962731;28;20081;-64
2024/03/16 13:18:14;;;;;;;4.70;1.30;;;;;;;;;;4988131;28;20056;-63
2024/03/16 13:20:44;;;;;;;4.22;1.30;;;;;;;;;;4981950;28;20065;-65
2024/03/16 13:23:10;;;;;;;4.93;1.00;;;;;;;;;;4984838;28;20052;-65
2024/03/16 13:25:45;;;;;;;5.40;1.10;;;;;;;;;;4969945;28;20058;-65
2024/03/16 13:28:13;;;;;;;3.05;0.82;;;;;;;;;;5000747;28;20210;-65
2024/03/16 13:30:40;;;;;;;2.63;0.80;;;;;;;;;;4985920;28;20080;-64
2024/03/16 13:33:09;;;;;;;4.07;1.00;;;;;;;;;;5001015;28;20071;-64
2024/03/16 13:35:37;;;;;;;9.63;0.93;;;;;;;;;;4950535;28;20138;-64
2024/03/16 13:38:06;;;;;;;5.50;1.13;;;;;;;;;;4995954;28;20057;-64
2024/03/16 13:40:33;;;;;;;6.43;0.95;;;;;;;;;;4986505;28;20057;-65
2024/03/16 13:43:01;;;;;;;5.57;0.90;;;;;;;;;;4968311;28;20064;-65
2024/03/16 13:45:28;;;;;;;8.25;2.30;;;;;;;;;;4958273;28;20061;-65
2024/03/16 13:48:00;;;;;;;6.25;1.83;;;;;;;;;;4992928;28;20091;-64
2024/03/16 13:50:27;;;;;;;12.00;4.90;;;;;;;;;;4991371;28;20130;-64
2024/03/16 13:52:54;;;;;;;3.60;1.33;;;;;;;;;;4996663;28;20069;-64
2024/03/16 13:55:24;;;;;;;6.63;1.70;;;;;;;;;;4975081;28;20052;-64
2024/03/16 13:57:53;;;;;;;6.80;1.10;;;;;;;;;;4973704;28;20063;-65
2024/03/16 14:00:26;;;;;;;10.43;4.10;;;;;;;;;;4987548;28;20049;-65
2024/03/16 14:02:52;;;;;;;15.85;4.93;;;;;;;;;;5002012;28;20534;-67
2024/03/16 14:05:22;;;;;;;5.05;2.10;;;;;;;;;;4946684;28;20104;-65
2024/03/16 14:07:54;;;;;;;7.50;1.13;;;;;;;;;;4966893;28;20046;-66
2024/03/16 14:10:22;;;;;;;2.88;0.80;;;;;;;;;;5018473;28;20053;-65
2024/03/16 14:12:58;;;;;;;7.20;0.80;;;;;;;;;;5002040;28;20111;-64
2024/03/16 14:15:29;;;;;;;6.38;1.55;;;;;;;;;;4955787;28;21173;-65
2024/03/16 14:18:00;;;;;;;5.28;0.88;;;;;;;;;;4922500;28;20062;-65
2024/03/16 14:20:32;;;;;;;6.25;1.00;;;;;;;;;;4987420;28;20064;-64
2024/03/16 14:22:57;;;;;;;7.95;0.98;;;;;;;;;;4980861;28;20057;-65
2024/03/16 14:25:25;;;;;;;12.38;1.80;;;;;;;;;;4986585;28;20151;-63
2024/03/16 14:27:53;;;;;;;13.55;5.72;;;;;;;;;;4944923;28;20181;-65
2024/03/16 14:30:20;;;;;;;7.80;1.43;;;;;;;;;;4998421;28;20115;-65
2024/03/16 14:32:46;;;;;;;8.77;1.00;;;;;;;;;;4978059;28;20189;-63
2024/03/16 14:35:19;;;;;;;;;;;;;;;;;;4979644;28;20055;-64
2024/03/16 14:37:47;;;;;;;5.82;1.05;;;;;;;;;;4980915;28;19936;-64
2024/03/16 14:40:21;;;;;;;2.47;0.70;;;;;;;;;;4990420;28;20044;-66
2024/03/16 14:42:50;;;;;;;5.60;0.80;;;;;;;;;;4996770;28;20415;-65
2024/03/16 14:45:19;;;;;;;3.35;0.70;;;;;;;;;;4966656;28;20490;-65
2024/03/16 14:47:47;;;;;;;6.63;1.50;;;;;;;;;;4988767;28;20156;-64
2024/03/16 14:50:19;;;;;;;3.97;0.75;;;;;;;;;;4984254;28;20056;-65